createdAt,value
2023-05-20T00:02:57.711Z,95981.53
2023-05-20T00:08:00.556Z,95972.22
2023-05-20T00:13:02.704Z,95975.84
2023-05-20T00:18:04.846Z,95974.72
2023-05-20T00:23:06.782Z,95967.34
2023-05-20T00:28:08.341Z,95963.91
2023-05-20T00:33:10.239Z,95949.41
2023-05-20T00:38:11.820Z,95939.63
2023-05-20T00:43:13.484Z,95936.94
2023-05-20T00:48:15.291Z,95942.94
2023-05-20T00:53:18.595Z,95930.84
2023-05-20T00:58:20.169Z,95936.84
2023-05-20T01:03:22.326Z,95939.69
2023-05-20T01:08:25.838Z,95946.47
2023-05-20T01:13:34.091Z,95947.75
2023-05-20T01:18:38.747Z,95933.69
2023-05-20T01:23:41.688Z,95927.03
2023-05-20T01:28:43.877Z,95931.81
2023-05-20T01:33:48.738Z,95922.44
2023-05-20T01:38:50.931Z,95913.81
2023-05-20T01:43:54.825Z,95912.69
2023-05-20T01:48:56.447Z,95906.06
2023-05-20T01:53:58.214Z,95901.72
2023-05-20T01:58:59.784Z,95899.41
2023-05-20T02:04:01.324Z,95912.81
2023-05-20T02:09:04.444Z,95908.94
2023-05-20T02:14:06.298Z,95909.00
2023-05-20T02:19:12.845Z,95909.44
2023-05-20T02:24:14.598Z,95906.31
2023-05-20T02:29:16.252Z,95900.44
2023-05-20T02:34:18.709Z,95899.31
2023-05-20T02:39:20.656Z,95901.69
2023-05-20T02:44:22.174Z,95915.53
2023-05-20T02:49:24.382Z,95911.66
2023-05-20T02:54:26.929Z,95916.44
2023-05-20T02:59:28.466Z,95912.56
2023-05-20T03:04:30.045Z,95903.16
2023-05-20T03:09:32.443Z,95902.47
2023-05-20T03:14:34.540Z,95910.34
2023-05-20T03:19:36.124Z,95901.38
2023-05-20T03:24:39.129Z,95910.03
2023-05-20T03:29:41.002Z,95900.63
2023-05-20T03:34:43.581Z,95911.28
2023-05-20T03:39:45.174Z,95907.41
2023-05-20T03:44:47.138Z,95898.38
2023-05-20T03:49:51.014Z,95905.91
2023-05-20T03:54:54.197Z,95905.91
2023-05-20T03:59:56.099Z,95907.88
2023-05-20T04:04:58.509Z,95902.78
2023-05-20T04:10:00.240Z,95897.28
2023-05-20T04:15:03.476Z,95907.50
2023-05-20T04:20:12.246Z,95902.78
2023-05-20T04:25:14.109Z,95904.31
2023-05-20T04:30:18.973Z,95901.94
2023-05-20T04:35:20.768Z,95901.16
2023-05-20T04:40:24.619Z,95890.88
2023-05-20T04:45:27.651Z,95894.00
2023-05-20T04:50:29.524Z,95898.66
2023-05-20T04:55:32.150Z,95895.47
2023-05-20T05:00:34.468Z,95897.81
2023-05-20T05:05:40.531Z,95896.22
2023-05-20T05:10:42.176Z,95904.78
2023-05-20T05:15:44.871Z,95901.97
2023-05-20T05:20:47.000Z,95895.63
2023-05-20T05:25:52.330Z,95901.81
2023-05-20T05:30:55.963Z,95901.34
2023-05-20T05:35:59.200Z,95888.66
2023-05-20T05:41:01.311Z,95887.81
2023-05-20T05:46:05.108Z,95886.94
2023-05-20T05:51:07.500Z,95892.78
2023-05-20T05:56:10.389Z,95869.44
2023-05-20T06:01:12.400Z,95878.00
2023-05-20T06:06:14.002Z,95880.59
2023-05-20T06:11:15.765Z,95878.16
2023-05-20T06:16:17.419Z,95878.41
2023-05-20T06:21:19.177Z,95870.44
2023-05-20T06:26:21.132Z,95864.41
2023-05-20T06:31:22.792Z,95868.66
2023-05-20T06:36:27.213Z,95870.06
2023-05-20T06:41:28.851Z,95860.84
2023-05-20T06:46:30.685Z,95867.69
2023-05-20T06:51:38.749Z,95871.88
2023-05-20T06:56:40.330Z,95864.13
2023-05-20T07:01:41.991Z,95864.22
2023-05-20T07:06:43.776Z,95853.28
2023-05-20T07:11:45.505Z,95854.13
2023-05-20T07:16:47.198Z,95856.63
2023-05-20T07:21:50.096Z,95852.06
2023-05-20T07:27:20.790Z,95840.66
2023-05-20T07:32:22.548Z,95845.03
2023-05-20T07:37:24.393Z,95839.09
2023-05-20T07:42:26.506Z,95830.09
2023-05-20T07:47:33.268Z,95832.00
2023-05-20T07:52:44.121Z,95834.38
2023-05-20T07:57:57.370Z,95842.69
2023-05-20T08:03:00.011Z,95837.97
2023-05-20T08:08:07.649Z,95826.59
2023-05-20T08:13:20.270Z,95835.09
2023-05-20T08:18:22.963Z,95833.56
2023-05-20T08:23:25.376Z,95826.78
2023-05-20T08:28:28.373Z,95818.78
2023-05-20T08:33:30.006Z,95831.41
2023-05-20T08:38:31.794Z,95819.50
2023-05-20T08:43:33.555Z,95810.25
2023-05-20T08:48:36.898Z,95833.16
2023-05-20T08:53:39.607Z,95824.03
2023-05-20T08:58:43.004Z,95816.41
2023-05-20T09:03:44.528Z,95811.56
2023-05-20T09:08:46.888Z,95819.69
2023-05-20T09:13:50.296Z,95827.78
2023-05-20T09:18:56.476Z,95820.34
2023-05-20T09:24:01.465Z,95828.09
2023-05-20T09:29:03.059Z,95812.44
2023-05-20T09:34:04.682Z,95811.41
2023-05-20T09:39:08.199Z,95815.16
2023-05-20T09:44:09.996Z,95802.97
2023-05-20T09:49:13.130Z,95794.78
2023-05-20T09:54:17.759Z,95803.47
2023-05-20T09:59:21.933Z,95800.22
2023-05-20T10:04:26.021Z,95776.25
2023-05-20T10:10:03.377Z,95788.75
2023-05-20T10:15:05.082Z,95788.09
2023-05-20T10:20:10.315Z,95781.88
2023-05-20T10:25:25.272Z,95785.09
2023-05-20T10:30:26.922Z,95774.88
2023-05-20T10:35:28.776Z,95767.59
2023-05-20T10:40:30.446Z,95763.88
2023-05-20T10:45:32.889Z,95766.00
2023-05-20T10:50:36.707Z,95763.97
2023-05-20T10:55:40.016Z,95755.72
2023-05-20T11:00:42.058Z,95751.06
2023-05-20T11:05:46.319Z,95738.00
2023-05-20T11:10:48.016Z,95742.78
2023-05-20T11:15:50.037Z,95738.22
2023-05-20T11:20:53.592Z,95737.50
2023-05-20T11:25:56.878Z,95736.47
2023-05-20T11:30:59.860Z,95726.78
2023-05-20T11:36:02.504Z,95731.03
2023-05-20T11:41:05.071Z,95729.72
2023-05-20T11:46:06.700Z,95721.72
2023-05-20T11:51:08.632Z,95725.03
2023-05-20T11:56:10.224Z,95724.75
2023-05-20T12:01:21.754Z,95735.72
2023-05-20T12:06:24.208Z,95725.81
2023-05-20T12:11:25.801Z,95727.06
2023-05-20T12:16:27.455Z,95719.44
2023-05-20T12:21:29.732Z,95732.44
2023-05-20T12:26:31.565Z,95715.69
2023-05-20T12:31:34.907Z,95716.00
2023-05-20T12:36:37.686Z,95699.53
2023-05-20T12:41:39.350Z,95702.88
2023-05-20T12:46:41.010Z,95708.97
2023-05-20T12:51:42.707Z,95708.66
2023-05-20T12:56:47.456Z,95705.59
2023-05-20T13:01:49.033Z,95700.50
2023-05-20T13:06:50.775Z,95702.31
2023-05-20T13:11:52.406Z,95698.28
2023-05-20T13:16:55.105Z,95702.69
2023-05-20T13:21:56.725Z,95690.34
2023-05-20T13:26:58.717Z,95694.09
2023-05-20T13:32:01.967Z,95695.72
2023-05-20T13:37:03.737Z,95684.84
2023-05-20T13:42:05.507Z,95680.13
2023-05-20T13:47:07.152Z,95685.50
2023-05-20T13:52:08.666Z,95671.34
2023-05-20T13:57:10.580Z,95663.31
2023-05-20T14:02:12.213Z,95667.59
2023-05-20T14:07:13.878Z,95650.53
2023-05-20T14:12:15.426Z,95645.44
2023-05-20T14:17:16.955Z,95652.75
2023-05-20T14:22:19.863Z,95649.91
2023-05-20T14:27:21.395Z,95642.19
2023-05-20T14:32:23.015Z,95635.50
2023-05-20T14:37:24.583Z,95636.09
2023-05-20T14:42:26.201Z,95626.47
2023-05-20T14:47:27.813Z,95620.91
2023-05-20T14:52:29.402Z,95605.72
2023-05-20T14:57:30.966Z,95617.25
2023-05-20T15:02:32.643Z,95608.44
2023-05-20T15:07:34.385Z,95616.63
2023-05-20T15:12:35.922Z,95607.97
2023-05-20T15:17:37.474Z,95603.72
2023-05-20T15:22:39.154Z,95603.00
2023-05-20T15:27:42.171Z,95595.44
2023-05-20T15:32:44.143Z,95597.25
2023-05-20T15:37:45.765Z,95592.41
2023-05-20T15:42:47.456Z,95590.59
2023-05-20T15:47:49.251Z,95587.53
2023-05-20T15:52:52.557Z,95582.38
2023-05-20T15:57:54.185Z,95585.66
2023-05-20T16:02:56.695Z,95594.06
2023-05-20T16:07:58.357Z,95591.78
2023-05-20T16:13:03.254Z,95583.38
2023-05-20T16:18:05.472Z,95587.44
2023-05-20T16:23:08.758Z,95583.09
2023-05-20T16:28:10.412Z,95585.84
2023-05-20T16:33:13.213Z,95587.13
2023-05-20T16:38:14.950Z,95585.84
2023-05-20T16:43:16.600Z,95587.59
2023-05-20T16:48:18.212Z,95595.75
2023-05-20T16:53:19.946Z,95603.38
2023-05-20T16:58:21.611Z,95607.47
2023-05-20T17:03:23.358Z,95604.66
2023-05-20T17:08:24.992Z,95602.63
2023-05-20T17:13:26.621Z,95610.78
2023-05-20T17:18:28.148Z,95617.66
2023-05-20T17:23:29.666Z,95615.88
2023-05-20T17:28:31.275Z,95613.81
2023-05-20T17:33:32.916Z,95619.63
2023-05-20T17:38:34.508Z,95613.94
2023-05-20T17:43:36.260Z,95618.69
2023-05-20T17:48:37.990Z,95619.09
2023-05-20T17:53:39.587Z,95626.06
2023-05-20T17:58:41.202Z,95629.50
2023-05-20T18:03:42.937Z,95630.09
2023-05-20T18:08:44.837Z,95627.91
2023-05-20T18:13:46.758Z,95629.81
2023-05-20T18:18:48.380Z,95635.03
2023-05-20T18:23:50.738Z,95630.25
2023-05-20T18:28:52.280Z,95634.69
2023-05-20T18:33:53.848Z,95639.88
2023-05-20T18:38:56.206Z,95631.03
2023-05-20T18:43:57.873Z,95634.69
2023-05-20T18:48:59.454Z,95631.91
2023-05-20T18:54:01.040Z,95643.69
2023-05-20T18:59:02.802Z,95647.84
2023-05-20T19:04:04.532Z,95647.19
2023-05-20T19:09:06.352Z,95653.63
2023-05-20T19:14:07.974Z,95650.16
2023-05-20T19:19:09.665Z,95657.88
2023-05-20T19:24:11.459Z,95662.00
2023-05-20T19:29:15.019Z,95665.34
2023-05-20T19:34:16.921Z,95668.72
2023-05-20T19:39:18.656Z,95675.31
2023-05-20T19:44:20.493Z,95672.81
2023-05-20T19:49:22.074Z,95675.81
2023-05-20T19:54:23.698Z,95687.97
2023-05-20T19:59:25.766Z,95683.72
2023-05-20T20:04:27.305Z,95687.03
2023-05-20T20:09:29.311Z,95686.81
2023-05-20T20:14:31.333Z,95687.63
2023-05-20T20:19:33.982Z,95684.59
2023-05-20T20:24:35.627Z,95683.06
2023-05-20T20:29:37.155Z,95694.25
2023-05-20T20:34:38.681Z,95698.31
2023-05-20T20:39:40.899Z,95689.97
2023-05-20T20:44:42.724Z,95694.34
2023-05-20T20:49:44.287Z,95686.81
2023-05-20T20:54:45.829Z,95684.34
2023-05-20T20:59:47.781Z,95681.88
2023-05-20T21:04:49.706Z,95685.47
2023-05-20T21:09:54.939Z,95692.53
2023-05-20T21:14:56.541Z,95690.56
2023-05-20T21:19:58.099Z,95684.06
2023-05-20T21:24:59.666Z,95682.38
2023-05-20T21:30:01.305Z,95689.03
2023-05-20T21:35:02.966Z,95687.34
2023-05-20T21:40:05.234Z,95675.78
2023-05-20T21:45:07.529Z,95666.50
2023-05-20T21:50:09.677Z,95669.88
2023-05-20T21:55:11.302Z,95678.38
2023-05-20T22:00:15.167Z,95674.97
2023-05-20T22:05:20.863Z,95669.72
2023-05-20T22:10:23.486Z,95670.78
2023-05-20T22:15:26.155Z,95668.16
2023-05-20T22:20:28.699Z,95667.06
2023-05-20T22:25:30.227Z,95676.31
2023-05-20T22:30:31.807Z,95666.59
2023-05-20T22:35:33.427Z,95665.50
2023-05-20T22:40:35.248Z,95655.66
2023-05-20T22:45:36.993Z,95661.34
2023-05-20T22:50:38.660Z,95654.84
2023-05-20T22:55:41.018Z,95654.84
2023-05-20T23:00:44.351Z,95643.13
2023-05-20T23:05:46.046Z,95643.28
2023-05-20T23:10:47.656Z,95625.22
2023-05-20T23:15:50.100Z,95626.16
2023-05-20T23:20:51.639Z,95627.06
2023-05-20T23:25:53.419Z,95622.91
2023-05-20T23:30:54.992Z,95621.81
2023-05-20T23:35:56.931Z,95620.72
2023-05-20T23:40:58.501Z,95625.97
2023-05-20T23:46:00.180Z,95611.44
2023-05-20T23:51:02.109Z,95609.91
2023-05-20T23:56:04.184Z,95618.25
